sensor_id;sensor_type;location;lat;lon;timestamp;pressure;altitude;pressure_sealevel;temperature;humidity
72612;BME280;60655;52.182;4.474;2022-12-29T00:01:25;99864.22;;;10.64;94.57
72612;BME280;60655;52.182;4.474;2022-12-29T00:03:26;99855.50;;;10.68;94.40
72612;BME280;60655;52.182;4.474;2022-12-29T00:05:27;99854.47;;;10.69;94.25
72612;BME280;60655;52.182;4.474;2022-12-29T00:07:28;99850.06;;;10.75;93.48
72612;BME280;60655;52.182;4.474;2022-12-29T00:09:29;99837.81;;;10.74;93.67
72612;BME280;60655;52.182;4.474;2022-12-29T00:11:30;99827.75;;;10.76;93.28
72612;BME280;60655;52.182;4.474;2022-12-29T00:13:31;99820.03;;;10.74;93.26
72612;BME280;60655;52.182;4.474;2022-12-29T00:15:50;99821.63;;;10.75;92.86
72612;BME280;60655;52.182;4.474;2022-12-29T00:17:51;99818.97;;;10.75;92.66
72612;BME280;60655;52.182;4.474;2022-12-29T00:19:52;99813.19;;;10.78;92.42
72612;BME280;60655;52.182;4.474;2022-12-29T00:22:12;99819.47;;;10.72;92.52
72612;BME280;60655;52.182;4.474;2022-12-29T00:24:32;99811.56;;;10.77;91.22
72612;BME280;60655;52.182;4.474;2022-12-29T00:27:12;99813.44;;;10.77;91.53
72612;BME280;60655;52.182;4.474;2022-12-29T00:29:31;99812.72;;;10.81;90.97
72612;BME280;60655;52.182;4.474;2022-12-29T00:31:51;99802.56;;;10.78;90.97
72612;BME280;60655;52.182;4.474;2022-12-29T00:34:11;99803.84;;;10.93;90.28
72612;BME280;60655;52.182;4.474;2022-12-29T00:36:40;99797.31;;;10.83;90.32
72612;BME280;60655;52.182;4.474;2022-12-29T00:38:46;99795.81;;;10.88;89.94
72612;BME280;60655;52.182;4.474;2022-12-29T00:41:07;99787.34;;;10.91;89.76
72612;BME280;60655;52.182;4.474;2022-12-29T00:43:27;99800.34;;;11.09;88.98
72612;BME280;60655;52.182;4.474;2022-12-29T00:45:46;99792.31;;;11.04;89.35
72612;BME280;60655;52.182;4.474;2022-12-29T00:47:47;99797.41;;;10.89;90.02
72612;BME280;60655;52.182;4.474;2022-12-29T00:49:48;99784.94;;;10.89;90.33
72612;BME280;60655;52.182;4.474;2022-12-29T00:51:50;99788.16;;;10.91;90.13
72612;BME280;60655;52.182;4.474;2022-12-29T00:53:51;99789.69;;;10.87;90.52
72612;BME280;60655;52.182;4.474;2022-12-29T00:55:52;99788.78;;;10.81;90.58
72612;BME280;60655;52.182;4.474;2022-12-29T00:57:53;99791.53;;;10.87;90.55
72612;BME280;60655;52.182;4.474;2022-12-29T00:59:54;99789.03;;;10.97;90.08
72612;BME280;60655;52.182;4.474;2022-12-29T01:01:55;99767.94;;;10.90;90.36
72612;BME280;60655;52.182;4.474;2022-12-29T01:03:57;99763.91;;;10.88;90.38
72612;BME280;60655;52.182;4.474;2022-12-29T01:06:00;99804.34;;;10.90;90.62
72612;BME280;60655;52.182;4.474;2022-12-29T01:08:02;99782.59;;;10.93;90.41
72612;BME280;60655;52.182;4.474;2022-12-29T01:10:03;99784.69;;;10.91;90.24
72612;BME280;60655;52.182;4.474;2022-12-29T01:12:10;99781.47;;;10.89;90.47
72612;BME280;60655;52.182;4.474;2022-12-29T01:14:12;99758.84;;;10.86;89.75
72612;BME280;60655;52.182;4.474;2022-12-29T01:16:13;99777.53;;;10.91;90.02
72612;BME280;60655;52.182;4.474;2022-12-29T01:18:15;99779.38;;;10.91;89.79
72612;BME280;60655;52.182;4.474;2022-12-29T01:20:16;99802.72;;;10.89;89.90
72612;BME280;60655;52.182;4.474;2022-12-29T01:22:16;99799.25;;;10.88;90.05
72612;BME280;60655;52.182;4.474;2022-12-29T01:24:19;99798.22;;;10.89;90.61
72612;BME280;60655;52.182;4.474;2022-12-29T01:26:21;99803.03;;;10.92;90.51
72612;BME280;60655;52.182;4.474;2022-12-29T01:28:22;99793.72;;;10.90;90.90
72612;BME280;60655;52.182;4.474;2022-12-29T01:30:23;99803.53;;;10.72;91.99
72612;BME280;60655;52.182;4.474;2022-12-29T01:32:25;99800.38;;;10.75;92.54
72612;BME280;60655;52.182;4.474;2022-12-29T01:34:26;99799.25;;;10.71;92.33
72612;BME280;60655;52.182;4.474;2022-12-29T01:36:27;99800.31;;;10.70;91.74
72612;BME280;60655;52.182;4.474;2022-12-29T01:38:28;99805.13;;;10.73;91.69
72612;BME280;60655;52.182;4.474;2022-12-29T01:40:29;99794.69;;;10.67;91.39
72612;BME280;60655;52.182;4.474;2022-12-29T01:42:33;99802.81;;;10.77;90.93
72612;BME280;60655;52.182;4.474;2022-12-29T01:46:50;99788.56;;;10.66;89.64
72612;BME280;60655;52.182;4.474;2022-12-29T01:49:13;99788.16;;;10.74;88.94
72612;BME280;60655;52.182;4.474;2022-12-29T01:51:16;99786.41;;;10.63;90.15
72612;BME280;60655;52.182;4.474;2022-12-29T01:53:20;99788.56;;;10.66;89.78
72612;BME280;60655;52.182;4.474;2022-12-29T01:55:24;99781.00;;;10.58;90.29
72612;BME280;60655;52.182;4.474;2022-12-29T01:57:31;99798.16;;;10.67;89.03
72612;BME280;60655;52.182;4.474;2022-12-29T01:59:38;99793.13;;;10.71;88.46
72612;BME280;60655;52.182;4.474;2022-12-29T02:01:41;99806.94;;;10.68;88.08
72612;BME280;60655;52.182;4.474;2022-12-29T02:03:42;99796.59;;;10.71;88.21
72612;BME280;60655;52.182;4.474;2022-12-29T02:05:54;99812.94;;;10.80;86.81
72612;BME280;60655;52.182;4.474;2022-12-29T02:07:57;99798.94;;;10.85;86.28
72612;BME280;60655;52.182;4.474;2022-12-29T02:09:59;99819.31;;;10.79;86.92
72612;BME280;60655;52.182;4.474;2022-12-29T02:12:02;99806.50;;;10.93;84.69
72612;BME280;60655;52.182;4.474;2022-12-29T02:14:14;99798.94;;;10.85;85.59
72612;BME280;60655;52.182;4.474;2022-12-29T02:16:25;99797.81;;;10.80;85.03
72612;BME280;60655;52.182;4.474;2022-12-29T02:24:04;99808.03;;;10.72;85.84
72612;BME280;60655;52.182;4.474;2022-12-29T02:26:39;99797.06;;;10.68;86.70
72612;BME280;60655;52.182;4.474;2022-12-29T02:35:55;99794.50;;;10.40;87.56
72612;BME280;60655;52.182;4.474;2022-12-29T02:38:05;99797.97;;;10.40;87.97
72612;BME280;60655;52.182;4.474;2022-12-29T02:43:22;99768.28;;;10.15;88.75
72612;BME280;60655;52.182;4.474;2022-12-29T02:45:31;99789.38;;;10.05;89.89
72612;BME280;60655;52.182;4.474;2022-12-29T02:47:42;99784.47;;;10.13;89.13
72612;BME280;60655;52.182;4.474;2022-12-29T02:49:49;99787.63;;;10.10;89.61
72612;BME280;60655;52.182;4.474;2022-12-29T02:52:05;99779.66;;;10.10;89.32
72612;BME280;60655;52.182;4.474;2022-12-29T02:54:07;99793.00;;;10.15;88.78
72612;BME280;60655;52.182;4.474;2022-12-29T02:56:27;99780.03;;;10.02;88.74
72612;BME280;60655;52.182;4.474;2022-12-29T02:58:28;99793.47;;;10.12;88.53
72612;BME280;60655;52.182;4.474;2022-12-29T03:00:29;99795.72;;;10.04;89.34
72612;BME280;60655;52.182;4.474;2022-12-29T03:07:29;99797.31;;;10.05;89.29
72612;BME280;60655;52.182;4.474;2022-12-29T03:12:12;99795.81;;;10.09;88.49
72612;BME280;60655;52.182;4.474;2022-12-29T03:14:32;99796.13;;;10.12;87.94
72612;BME280;60655;52.182;4.474;2022-12-29T03:17:03;99800.06;;;10.10;87.54
72612;BME280;60655;52.182;4.474;2022-12-29T03:19:31;99799.56;;;10.13;86.15
72612;BME280;60655;52.182;4.474;2022-12-29T03:21:42;99775.44;;;10.14;85.63
72612;BME280;60655;52.182;4.474;2022-12-29T03:24:03;99787.22;;;10.19;84.86
72612;BME280;60655;52.182;4.474;2022-12-29T03:26:08;99771.44;;;10.12;85.41
72612;BME280;60655;52.182;4.474;2022-12-29T03:28:12;99781.34;;;10.16;85.33
72612;BME280;60655;52.182;4.474;2022-12-29T03:30:14;99775.41;;;10.09;86.49
72612;BME280;60655;52.182;4.474;2022-12-29T03:32:16;99778.03;;;10.09;86.92
72612;BME280;60655;52.182;4.474;2022-12-29T03:34:19;99774.59;;;10.09;86.78
72612;BME280;60655;52.182;4.474;2022-12-29T03:36:29;99784.16;;;10.10;86.83
72612;BME280;60655;52.182;4.474;2022-12-29T03:38:53;99780.66;;;10.21;86.63
72612;BME280;60655;52.182;4.474;2022-12-29T03:40:58;99782.59;;;10.14;86.81
72612;BME280;60655;52.182;4.474;2022-12-29T03:43:01;99768.47;;;10.08;86.91
72612;BME280;60655;52.182;4.474;2022-12-29T03:45:04;99772.94;;;10.20;86.01
72612;BME280;60655;52.182;4.474;2022-12-29T03:47:07;99776.72;;;10.24;86.02
72612;BME280;60655;52.182;4.474;2022-12-29T03:49:08;99781.31;;;10.28;85.32
72612;BME280;60655;52.182;4.474;2022-12-29T03:51:09;99773.91;;;10.30;85.07
72612;BME280;60655;52.182;4.474;2022-12-29T03:53:10;99779.22;;;10.30;85.29
72612;BME280;60655;52.182;4.474;2022-12-29T03:55:11;99765.94;;;10.30;84.52
72612;BME280;60655;52.182;4.474;2022-12-29T03:57:12;99772.97;;;10.36;84.55
72612;BME280;60655;52.182;4.474;2022-12-29T03:59:13;99785.34;;;10.31;84.80
72612;BME280;60655;52.182;4.474;2022-12-29T04:01:14;99775.28;;;10.33;84.72
72612;BME280;60655;52.182;4.474;2022-12-29T04:03:15;99778.41;;;10.30;84.18
72612;BME280;60655;52.182;4.474;2022-12-29T04:05:16;99781.69;;;10.20;84.72
72612;BME280;60655;52.182;4.474;2022-12-29T04:07:17;99796.34;;;10.23;85.20
72612;BME280;60655;52.182;4.474;2022-12-29T04:09:18;99776.72;;;10.24;83.49
72612;BME280;60655;52.182;4.474;2022-12-29T04:11:19;99798.28;;;10.27;83.66
72612;BME280;60655;52.182;4.474;2022-12-29T04:13:20;99784.22;;;10.15;83.47
72612;BME280;60655;52.182;4.474;2022-12-29T04:15:21;99805.78;;;10.19;83.84
72612;BME280;60655;52.182;4.474;2022-12-29T04:17:24;99798.75;;;10.24;82.59
72612;BME280;60655;52.182;4.474;2022-12-29T04:19:25;99802.88;;;10.32;82.09
72612;BME280;60655;52.182;4.474;2022-12-29T04:21:25;99813.31;;;10.22;82.96
72612;BME280;60655;52.182;4.474;2022-12-29T04:23:27;99811.34;;;10.17;82.69
72612;BME280;60655;52.182;4.474;2022-12-29T04:25:30;99806.50;;;10.14;81.95
72612;BME280;60655;52.182;4.474;2022-12-29T04:27:31;99808.91;;;10.15;81.56
72612;BME280;60655;52.182;4.474;2022-12-29T04:29:32;99805.13;;;10.11;81.74
72612;BME280;60655;52.182;4.474;2022-12-29T04:31:33;99801.19;;;10.14;81.46
72612;BME280;60655;52.182;4.474;2022-12-29T04:33:34;99809.38;;;10.12;81.79
72612;BME280;60655;52.182;4.474;2022-12-29T04:35:35;99811.22;;;10.12;81.98
72612;BME280;60655;52.182;4.474;2022-12-29T04:37:36;99799.06;;;9.99;82.41
72612;BME280;60655;52.182;4.474;2022-12-29T04:39:37;99815.66;;;10.06;82.96
72612;BME280;60655;52.182;4.474;2022-12-29T04:41:38;99802.78;;;9.98;83.16
72612;BME280;60655;52.182;4.474;2022-12-29T04:43:39;99810.25;;;10.01;83.37
72612;BME280;60655;52.182;4.474;2022-12-29T04:45:44;99804.59;;;10.09;83.00
72612;BME280;60655;52.182;4.474;2022-12-29T04:47:45;99805.31;;;9.93;83.53
72612;BME280;60655;52.182;4.474;2022-12-29T04:49:46;99808.88;;;9.99;83.58
72612;BME280;60655;52.182;4.474;2022-12-29T04:51:47;99817.56;;;9.94;83.76
72612;BME280;60655;52.182;4.474;2022-12-29T04:53:48;99793.91;;;9.93;84.90
72612;BME280;60655;52.182;4.474;2022-12-29T04:55:50;99831.38;;;9.96;84.67
72612;BME280;60655;52.182;4.474;2022-12-29T04:57:51;99810.03;;;10.03;83.93
72612;BME280;60655;52.182;4.474;2022-12-29T04:59:53;99816.97;;;9.92;84.52
72612;BME280;60655;52.182;4.474;2022-12-29T05:01:54;99809.34;;;9.96;85.04
72612;BME280;60655;52.182;4.474;2022-12-29T05:03:55;99807.84;;;10.00;85.03
72612;BME280;60655;52.182;4.474;2022-12-29T05:05:56;99823.53;;;10.01;84.74
72612;BME280;60655;52.182;4.474;2022-12-29T05:07:57;99820.63;;;10.03;85.07
72612;BME280;60655;52.182;4.474;2022-12-29T05:09:59;99828.28;;;9.88;84.76
72612;BME280;60655;52.182;4.474;2022-12-29T05:12:00;99822.97;;;9.99;83.55
72612;BME280;60655;52.182;4.474;2022-12-29T05:14:01;99822.16;;;9.99;83.59
72612;BME280;60655;52.182;4.474;2022-12-29T05:16:02;99842.13;;;9.90;84.48
72612;BME280;60655;52.182;4.474;2022-12-29T05:18:03;99839.00;;;9.93;84.51
72612;BME280;60655;52.182;4.474;2022-12-29T05:20:05;99826.31;;;9.95;84.16
72612;BME280;60655;52.182;4.474;2022-12-29T05:22:07;99833.00;;;9.97;84.43
72612;BME280;60655;52.182;4.474;2022-12-29T05:24:09;99823.63;;;10.06;82.88
72612;BME280;60655;52.182;4.474;2022-12-29T05:26:10;99821.72;;;9.90;83.65
72612;BME280;60655;52.182;4.474;2022-12-29T05:28:11;99818.59;;;9.93;83.96
72612;BME280;60655;52.182;4.474;2022-12-29T05:30:13;99820.09;;;9.89;84.53
72612;BME280;60655;52.182;4.474;2022-12-29T05:32:14;99817.41;;;10.01;83.99
72612;BME280;60655;52.182;4.474;2022-12-29T05:34:15;99808.78;;;9.94;84.51
72612;BME280;60655;52.182;4.474;2022-12-29T05:36:16;99823.19;;;9.98;84.32
72612;BME280;60655;52.182;4.474;2022-12-29T05:38:17;99832.31;;;9.90;84.23
72612;BME280;60655;52.182;4.474;2022-12-29T05:40:19;99839.81;;;9.93;84.02
72612;BME280;60655;52.182;4.474;2022-12-29T05:42:20;99841.09;;;9.91;84.28
72612;BME280;60655;52.182;4.474;2022-12-29T05:44:21;99844.03;;;9.77;85.02
72612;BME280;60655;52.182;4.474;2022-12-29T05:46:22;99839.72;;;9.88;85.16
72612;BME280;60655;52.182;4.474;2022-12-29T05:48:23;99858.38;;;9.93;84.86
72612;BME280;60655;52.182;4.474;2022-12-29T05:50:24;99857.56;;;9.93;84.56
72612;BME280;60655;52.182;4.474;2022-12-29T05:52:25;99852.97;;;9.88;84.17
72612;BME280;60655;52.182;4.474;2022-12-29T05:54:25;99855.84;;;9.98;83.95
72612;BME280;60655;52.182;4.474;2022-12-29T05:56:26;99861.00;;;10.05;84.19
72612;BME280;60655;52.182;4.474;2022-12-29T05:58:27;99866.31;;;10.05;83.50
72612;BME280;60655;52.182;4.474;2022-12-29T06:00:28;99868.28;;;9.98;83.17
72612;BME280;60655;52.182;4.474;2022-12-29T06:02:29;99862.75;;;9.99;83.02
72612;BME280;60655;52.182;4.474;2022-12-29T06:04:30;99841.78;;;9.86;83.28
72612;BME280;60655;52.182;4.474;2022-12-29T06:06:31;99853.69;;;9.83;83.00
72612;BME280;60655;52.182;4.474;2022-12-29T06:08:32;99883.41;;;9.97;82.81
72612;BME280;60655;52.182;4.474;2022-12-29T06:10:34;99863.91;;;10.03;83.00
72612;BME280;60655;52.182;4.474;2022-12-29T06:12:34;99874.75;;;10.02;83.26
72612;BME280;60655;52.182;4.474;2022-12-29T06:14:35;99856.63;;;9.99;83.19
72612;BME280;60655;52.182;4.474;2022-12-29T06:16:36;99867.72;;;9.96;82.93
72612;BME280;60655;52.182;4.474;2022-12-29T06:18:37;99873.50;;;9.93;82.81
72612;BME280;60655;52.182;4.474;2022-12-29T06:20:38;99878.91;;;9.98;82.19
72612;BME280;60655;52.182;4.474;2022-12-29T06:22:39;99875.34;;;9.92;82.79
72612;BME280;60655;52.182;4.474;2022-12-29T06:24:40;99889.41;;;9.93;81.91
72612;BME280;60655;52.182;4.474;2022-12-29T06:26:41;99889.06;;;9.89;82.17
72612;BME280;60655;52.182;4.474;2022-12-29T06:28:42;99888.84;;;9.91;81.99
72612;BME280;60655;52.182;4.474;2022-12-29T06:30:44;99865.19;;;9.89;81.86
72612;BME280;60655;52.182;4.474;2022-12-29T06:32:46;99876.66;;;9.78;82.11
72612;BME280;60655;52.182;4.474;2022-12-29T06:34:47;99887.28;;;9.78;81.38
72612;BME280;60655;52.182;4.474;2022-12-29T06:36:48;99883.25;;;9.75;81.63
72612;BME280;60655;52.182;4.474;2022-12-29T06:38:49;99881.25;;;9.82;81.17
72612;BME280;60655;52.182;4.474;2022-12-29T06:40:53;99886.88;;;9.86;80.76
72612;BME280;60655;52.182;4.474;2022-12-29T06:42:53;99873.25;;;9.94;80.41
72612;BME280;60655;52.182;4.474;2022-12-29T06:44:55;99888.50;;;9.87;80.72
72612;BME280;60655;52.182;4.474;2022-12-29T06:46:59;99874.59;;;9.80;81.15
72612;BME280;60655;52.182;4.474;2022-12-29T06:49:00;99880.13;;;9.78;80.31
72612;BME280;60655;52.182;4.474;2022-12-29T06:51:01;99876.03;;;9.88;79.97
72612;BME280;60655;52.182;4.474;2022-12-29T06:53:02;99881.59;;;9.86;79.87
72612;BME280;60655;52.182;4.474;2022-12-29T06:55:03;99883.44;;;9.86;80.09
72612;BME280;60655;52.182;4.474;2022-12-29T06:57:04;99865.09;;;9.84;79.83
72612;BME280;60655;52.182;4.474;2022-12-29T06:59:05;99882.84;;;9.83;79.88
72612;BME280;60655;52.182;4.474;2022-12-29T07:01:06;99899.34;;;9.86;80.49
72612;BME280;60655;52.182;4.474;2022-12-29T07:03:07;99891.78;;;9.77;81.01
72612;BME280;60655;52.182;4.474;2022-12-29T07:05:08;99875.00;;;9.89;80.26
72612;BME280;60655;52.182;4.474;2022-12-29T07:07:10;99883.44;;;9.86;79.86
72612;BME280;60655;52.182;4.474;2022-12-29T07:09:11;99894.28;;;9.84;79.95
72612;BME280;60655;52.182;4.474;2022-12-29T07:11:13;99880.53;;;9.87;79.82
72612;BME280;60655;52.182;4.474;2022-12-29T07:13:13;99891.78;;;9.77;80.64
72612;BME280;60655;52.182;4.474;2022-12-29T07:15:15;99889.34;;;9.76;80.90
72612;BME280;60655;52.182;4.474;2022-12-29T07:17:15;99890.81;;;9.83;79.90
72612;BME280;60655;52.182;4.474;2022-12-29T07:19:16;99894.16;;;9.91;79.90
72612;BME280;60655;52.182;4.474;2022-12-29T07:21:18;99898.97;;;9.94;80.07
72612;BME280;60655;52.182;4.474;2022-12-29T07:23:19;99896.66;;;9.97;79.93
72612;BME280;60655;52.182;4.474;2022-12-29T07:25:20;99901.28;;;9.90;80.04
72612;BME280;60655;52.182;4.474;2022-12-29T07:27:21;99897.25;;;9.88;80.42
72612;BME280;60655;52.182;4.474;2022-12-29T07:29:22;99897.50;;;9.86;80.58
72612;BME280;60655;52.182;4.474;2022-12-29T07:31:23;99905.00;;;9.89;80.54
72612;BME280;60655;52.182;4.474;2022-12-29T07:33:24;99896.78;;;9.91;79.98
72612;BME280;60655;52.182;4.474;2022-12-29T07:35:25;99903.75;;;9.80;80.47
72612;BME280;60655;52.182;4.474;2022-12-29T07:37:27;99896.13;;;9.83;80.61
72612;BME280;60655;52.182;4.474;2022-12-29T07:39:27;99896.59;;;9.80;81.05
72612;BME280;60655;52.182;4.474;2022-12-29T07:41:29;99901.09;;;9.80;81.23
72612;BME280;60655;52.182;4.474;2022-12-29T07:43:30;99904.66;;;9.86;82.58
72612;BME280;60655;52.182;4.474;2022-12-29T07:45:31;99907.63;;;9.89;82.30
72612;BME280;60655;52.182;4.474;2022-12-29T07:47:32;99899.78;;;9.94;82.78
72612;BME280;60655;52.182;4.474;2022-12-29T07:49:33;99913.44;;;9.74;83.69
72612;BME280;60655;52.182;4.474;2022-12-29T07:51:33;99912.66;;;9.62;84.30
72612;BME280;60655;52.182;4.474;2022-12-29T07:53:35;99910.44;;;9.71;84.07
72612;BME280;60655;52.182;4.474;2022-12-29T07:55:36;99900.78;;;9.65;84.50
72612;BME280;60655;52.182;4.474;2022-12-29T07:57:37;99905.72;;;9.61;86.29
72612;BME280;60655;52.182;4.474;2022-12-29T07:59:38;99901.22;;;9.62;86.19
72612;BME280;60655;52.182;4.474;2022-12-29T08:01:39;99895.00;;;9.56;86.53
72612;BME280;60655;52.182;4.474;2022-12-29T08:03:40;99896.84;;;9.67;86.46
72612;BME280;60655;52.182;4.474;2022-12-29T08:05:42;99899.84;;;9.59;86.00
72612;BME280;60655;52.182;4.474;2022-12-29T08:07:43;99900.09;;;9.46;87.30
72612;BME280;60655;52.182;4.474;2022-12-29T08:09:44;99901.13;;;9.45;86.94
72612;BME280;60655;52.182;4.474;2022-12-29T08:11:45;99907.47;;;9.44;87.53
72612;BME280;60655;52.182;4.474;2022-12-29T08:13:47;99909.09;;;9.45;87.08
72612;BME280;60655;52.182;4.474;2022-12-29T08:15:48;99910.72;;;9.46;87.39
72612;BME280;60655;52.182;4.474;2022-12-29T08:17:49;99909.91;;;9.45;87.61
72612;BME280;60655;52.182;4.474;2022-12-29T08:19:49;99912.78;;;9.32;87.16
72612;BME280;60655;52.182;4.474;2022-12-29T08:21:50;99918.31;;;9.42;87.28
72612;BME280;60655;52.182;4.474;2022-12-29T08:23:52;99929.84;;;9.48;87.06
72612;BME280;60655;52.182;4.474;2022-12-29T08:26:00;99936.41;;;9.34;88.45
72612;BME280;60655;52.182;4.474;2022-12-29T08:28:02;99930.63;;;9.25;88.37
72612;BME280;60655;52.182;4.474;2022-12-29T08:30:04;99940.75;;;9.28;88.87
72612;BME280;60655;52.182;4.474;2022-12-29T08:32:05;99930.06;;;9.35;89.17
72612;BME280;60655;52.182;4.474;2022-12-29T08:34:07;99932.13;;;9.33;88.96
72612;BME280;60655;52.182;4.474;2022-12-29T08:36:08;99933.97;;;9.32;88.61
72612;BME280;60655;52.182;4.474;2022-12-29T08:38:10;99935.94;;;9.37;88.88
72612;BME280;60655;52.182;4.474;2022-12-29T08:40:15;99942.84;;;9.38;89.41
72612;BME280;60655;52.182;4.474;2022-12-29T08:42:16;99948.25;;;9.31;89.02
72612;BME280;60655;52.182;4.474;2022-12-29T08:44:17;99943.06;;;9.25;88.74
72612;BME280;60655;52.182;4.474;2022-12-29T08:46:18;99949.53;;;9.29;88.44
72612;BME280;60655;52.182;4.474;2022-12-29T08:48:20;99952.75;;;9.31;88.64
72612;BME280;60655;52.182;4.474;2022-12-29T08:50:22;99960.69;;;9.31;88.93
72612;BME280;60655;52.182;4.474;2022-12-29T08:52:23;99969.91;;;9.28;89.95
72612;BME280;60655;52.182;4.474;2022-12-29T08:54:25;99969.59;;;9.36;89.41
72612;BME280;60655;52.182;4.474;2022-12-29T08:56:26;99968.56;;;9.37;90.00
72612;BME280;60655;52.182;4.474;2022-12-29T08:58:28;99977.41;;;9.20;91.16
72612;BME280;60655;52.182;4.474;2022-12-29T09:00:29;99988.09;;;9.13;92.27
72612;BME280;60655;52.182;4.474;2022-12-29T09:02:30;99957.78;;;9.09;92.63
72612;BME280;60655;52.182;4.474;2022-12-29T09:04:31;99980.88;;;9.20;92.59
72612;BME280;60655;52.182;4.474;2022-12-29T09:06:32;99992.50;;;9.31;92.28
72612;BME280;60655;52.182;4.474;2022-12-29T09:08:33;99986.41;;;9.30;92.24
72612;BME280;60655;52.182;4.474;2022-12-29T09:10:34;99997.00;;;9.19;92.86
72612;BME280;60655;52.182;4.474;2022-12-29T09:12:35;100003.09;;;9.31;92.55
72612;BME280;60655;52.182;4.474;2022-12-29T09:14:36;100009.56;;;9.23;93.07
72612;BME280;60655;52.182;4.474;2022-12-29T09:16:37;100005.41;;;9.27;92.25
72612;BME280;60655;52.182;4.474;2022-12-29T09:18:39;99998.63;;;9.31;92.67
72612;BME280;60655;52.182;4.474;2022-12-29T09:20:40;100017.75;;;9.33;92.89
72612;BME280;60655;52.182;4.474;2022-12-29T09:22:43;100022.91;;;9.28;93.21
72612;BME280;60655;52.182;4.474;2022-12-29T09:24:44;100016.59;;;9.29;93.18
72612;BME280;60655;52.182;4.474;2022-12-29T09:26:45;100028.97;;;9.47;92.31
72612;BME280;60655;52.182;4.474;2022-12-29T09:28:46;100032.19;;;9.49;91.92
72612;BME280;60655;52.182;4.474;2022-12-29T09:30:48;100032.53;;;9.41;92.13
72612;BME280;60655;52.182;4.474;2022-12-29T09:32:49;100027.69;;;9.38;92.32
72612;BME280;60655;52.182;4.474;2022-12-29T09:34:50;100033.66;;;9.33;93.31
72612;BME280;60655;52.182;4.474;2022-12-29T09:36:51;100056.03;;;9.37;93.03
72612;BME280;60655;52.182;4.474;2022-12-29T09:38:53;100054.44;;;9.48;92.55
72612;BME280;60655;52.182;4.474;2022-12-29T09:43:14;100061.47;;;9.42;92.84
72612;BME280;60655;52.182;4.474;2022-12-29T09:45:24;100061.38;;;9.61;91.50
72612;BME280;60655;52.182;4.474;2022-12-29T09:47:30;100075.44;;;9.50;92.11
72612;BME280;60655;52.182;4.474;2022-12-29T09:51:48;100076.91;;;9.57;92.00
72612;BME280;60655;52.182;4.474;2022-12-29T09:53:58;100086.72;;;9.57;91.88
72612;BME280;60655;52.182;4.474;2022-12-29T09:56:01;100088.56;;;9.56;92.07
72612;BME280;60655;52.182;4.474;2022-12-29T10:02:54;100117.44;;;9.76;89.00
72612;BME280;60655;52.182;4.474;2022-12-29T10:04:58;100106.56;;;9.66;90.28
72612;BME280;60655;52.182;4.474;2022-12-29T10:07:28;100110.75;;;9.73;88.89
72612;BME280;60655;52.182;4.474;2022-12-29T10:09:48;100122.88;;;9.81;88.46
72612;BME280;60655;52.182;4.474;2022-12-29T10:23:52;100148.59;;;9.92;87.48
72612;BME280;60655;52.182;4.474;2022-12-29T10:25:56;100152.16;;;9.86;86.93
72612;BME280;60655;52.182;4.474;2022-12-29T10:28:00;100161.19;;;9.97;86.34
72612;BME280;60655;52.182;4.474;2022-12-29T10:30:04;100161.78;;;10.10;86.17
72612;BME280;60655;52.182;4.474;2022-12-29T10:34:45;100170.66;;;10.16;84.24
72612;BME280;60655;52.182;4.474;2022-12-29T10:36:51;100164.09;;;10.07;85.24
72612;BME280;60655;52.182;4.474;2022-12-29T10:39:04;100173.19;;;10.11;83.96
72612;BME280;60655;52.182;4.474;2022-12-29T10:41:18;100179.44;;;10.16;83.18
72612;BME280;60655;52.182;4.474;2022-12-29T10:43:36;100191.00;;;10.10;83.08
72612;BME280;60655;52.182;4.474;2022-12-29T10:45:39;100185.69;;;10.10;83.02
72612;BME280;60655;52.182;4.474;2022-12-29T10:47:55;100197.66;;;10.01;83.80
72612;BME280;60655;52.182;4.474;2022-12-29T10:50:00;100203.53;;;10.03;82.78
72612;BME280;60655;52.182;4.474;2022-12-29T10:52:02;100206.66;;;10.12;82.85
72612;BME280;60655;52.182;4.474;2022-12-29T10:54:11;100210.69;;;10.14;81.67
72612;BME280;60655;52.182;4.474;2022-12-29T10:56:30;100188.88;;;10.01;82.85
72612;BME280;60655;52.182;4.474;2022-12-29T10:58:32;100195.22;;;10.11;81.90
72612;BME280;60655;52.182;4.474;2022-12-29T11:00:33;100205.16;;;10.16;83.00
72612;BME280;60655;52.182;4.474;2022-12-29T11:07:00;100220.84;;;10.06;81.25
72612;BME280;60655;52.182;4.474;2022-12-29T11:09:12;100231.94;;;10.03;82.26
72612;BME280;60655;52.182;4.474;2022-12-29T11:11:26;100238.72;;;9.99;82.36
72612;BME280;60655;52.182;4.474;2022-12-29T11:13:30;100238.84;;;10.04;80.54
72612;BME280;60655;52.182;4.474;2022-12-29T11:15:48;100241.41;;;10.10;80.88
72612;BME280;60655;52.182;4.474;2022-12-29T11:17:56;100244.63;;;10.12;80.38
72612;BME280;60655;52.182;4.474;2022-12-29T11:19:57;100239.53;;;10.11;80.24
72612;BME280;60655;52.182;4.474;2022-12-29T11:22:22;100234.13;;;10.18;80.58
72612;BME280;60655;52.182;4.474;2022-12-29T11:24:25;100235.75;;;10.07;81.74
72612;BME280;60655;52.182;4.474;2022-12-29T11:26:28;100241.88;;;10.07;81.21
72612;BME280;60655;52.182;4.474;2022-12-29T11:28:29;100245.56;;;10.18;80.58
72612;BME280;60655;52.182;4.474;2022-12-29T11:30:32;100253.72;;;10.35;79.61
72612;BME280;60655;52.182;4.474;2022-12-29T11:32:33;100263.63;;;10.28;78.87
72612;BME280;60655;52.182;4.474;2022-12-29T11:34:35;100260.63;;;10.24;79.77
72612;BME280;60655;52.182;4.474;2022-12-29T11:36:38;100265.72;;;10.49;79.58
72612;BME280;60655;52.182;4.474;2022-12-29T11:38:41;100256.94;;;10.48;79.35
72612;BME280;60655;52.182;4.474;2022-12-29T11:40:43;100265.28;;;10.52;77.02
72612;BME280;60655;52.182;4.474;2022-12-29T11:42:57;100259.03;;;10.46;78.26
72612;BME280;60655;52.182;4.474;2022-12-29T11:45:04;100282.69;;;10.48;76.36
72612;BME280;60655;52.182;4.474;2022-12-29T11:47:09;100268.38;;;10.37;76.89
72612;BME280;60655;52.182;4.474;2022-12-29T11:49:21;100273.34;;;10.45;76.14
72612;BME280;60655;52.182;4.474;2022-12-29T11:51:26;100268.84;;;10.34;77.24
72612;BME280;60655;52.182;4.474;2022-12-29T11:55:37;100278.63;;;10.22;79.21